Asia, Texas
Current Conditions -  °F | °C
As of 8:53 AM on Thursday 18 Dec 2014 (Local Time) from KLFK Reporting Station
Overcast Overcast  
Wind Chill: 12°   Ceiling: 1100
Heat Index: 12°   Visibility: 7mi
Dew Point:   Wind: 7mph
Humidity: 77%   Direction: 60°ENE
Pressure: 30.14"   Gusts: NA
Location:  31.024°N, 94.7686°W
Report Text: KLFK 181453Z AUTO 06006KT 7SM OVC011 12/08 A3014 RMK AO2 SLP206 T01170078 51013
Loading
Personal Weather Stations






























Interactive Weather Map New forecast layout! Learn more

10-Day Weather Forecast

Advertisements
Track Severe Weather on mobile